Terminal Aerodrome Forecast
Issued by NWS Raleigh/Durham, NC

Home | Current Version | Previous Version | Text Only | Print | Product List | Glossary On
Versions: 1 2 3 4 5 6 7 8 9 10 11 12 13 14 15 16 17 18 19 20 21 22 23 24 25 26 27 28 29 30 31 32 33 34
000
FTUS42 KRAH 251351 AAB
TAFFAY
TAF AMD
KFAY 251351Z 2514/2612 21011G21KT P6SM FEW012 SCT050
      TEMPO 2514/2515 18007KT 4SM BR BKN003
     FM251700 22017G27KT P6SM FEW030 BKN040
     FM260000 29012G19KT P6SM FEW060
     FM260400 32009KT P6SM SKC=

USA.gov is the U.S. government's official web portal to all federal, state and local government web resources and services.